Austin Straubel International, WI

3:09 PM CDT on May 25, 2015 (GMT -0500)
Austin Straubel International | | Change Station
CLOSE
Current Station
Airport
Location: Green Bay,
Elevation: 686 ft
Nearby Weather Stations

Elev 686 ft 44.48 °N, 88.14 °W | Updated 16 minutes ago

Overcast
Overcast
74 °F
Feels Like 74 °F
N
13
Wind Variable Wind from SW

Today
High -- | Low -- °F
--% Chance of Precip.
Yesterday
High -- | Low -- °F
Precip. -- in
5:15 AM 8:23 PM
Waxing Crescent, 51% visible
Pressure 29.75 in
Visibility 10.0 miles
Clouds Few 4700 ft
Scattered Clouds 5500 ft
Overcast 7000 ft
Dew Point 64 °F
Humidity 71%
Rainfall 0.25 in
Snow Depth Not available.
UV 3 out of 12
Pollen .90 out of 12
Air Quality Not available.
Flu Activity Sporadic
METAR KGRB 251953Z AUTO 23011KT 10SM FEW047 SCT055 OVC070 23/18 A2975 RMK AO2 SLP073 T02330178

More Conditions Fewer Conditions

Pressure 29.75 in
Visibility 10.0 miles
Clouds Few 4700 ft
Scattered Clouds 5500 ft
Overcast 7000 ft
Dew Point 64 °F
Humidity 71%
Rainfall 0.25 in
Snow Depth Not available.
UV 3 out of 12
Pollen .90 out of 12
Air Quality Not available.
Flu Activity Sporadic
METAR KGRB 251953Z AUTO 23011KT 10SM FEW047 SCT055 OVC070 23/18 A2975 RMK AO2 SLP073 T02330178

More Conditions Fewer Conditions

10-Day Weather Forecast

Almanac

Astronomy

May. 25, 2015 Rise Set
Actual Time
Civil Twilight
Nautical Twilight
Astronomical Twilight
Moon
Length of Visible Light
Length of Day
Tomorrow will be .
, % of the Moon is Illuminated

Today's Extremes

State Highs State Lows

Community

WunderPhotos

Upload Photos

1,824,115 photos uploaded!

WunderBlogs® & News

Nearby

Air Quality

  Air Quality AQ Index Pollutant
Not available.

Snow Depth

Station Depth Elevation

Earthquake Activity

City Distance Mag. Time & Date
Minimum magnitude displayed is 2.5.

Coastal Water Temperatures

Place Temperature

Stations

Nearby Weather Stations

Station Location Temp. Windchill Dew Point Humidity Wind Precip. Elev Updated Type